sensor_id;sensor_type;location;lat;lon;timestamp;temperature;humidity
68766;DHT22;55756;45.582;11.484;2024-02-04T00:01:40;11.00;57.60
68766;DHT22;55756;45.582;11.484;2024-02-04T00:04:06;11.00;57.50
68766;DHT22;55756;45.582;11.484;2024-02-04T00:06:32;11.00;57.30
68766;DHT22;55756;45.582;11.484;2024-02-04T00:08:57;11.00;57.50
68766;DHT22;55756;45.582;11.484;2024-02-04T00:11:23;11.00;57.40
68766;DHT22;55756;45.582;11.484;2024-02-04T00:13:49;11.00;57.70
68766;DHT22;55756;45.582;11.484;2024-02-04T00:16:15;11.00;57.80
68766;DHT22;55756;45.582;11.484;2024-02-04T00:18:40;10.90;57.80
68766;DHT22;55756;45.582;11.484;2024-02-04T00:21:06;11.00;57.70
68766;DHT22;55756;45.582;11.484;2024-02-04T00:23:32;11.00;57.50
68766;DHT22;55756;45.582;11.484;2024-02-04T00:25:58;11.00;58.00
68766;DHT22;55756;45.582;11.484;2024-02-04T00:28:23;11.00;57.70
68766;DHT22;55756;45.582;11.484;2024-02-04T00:30:49;10.90;57.50
68766;DHT22;55756;45.582;11.484;2024-02-04T00:33:16;10.90;57.50
68766;DHT22;55756;45.582;11.484;2024-02-04T00:35:42;10.90;57.70
68766;DHT22;55756;45.582;11.484;2024-02-04T00:38:08;11.00;57.60
68766;DHT22;55756;45.582;11.484;2024-02-04T00:40:34;10.90;57.50
68766;DHT22;55756;45.582;11.484;2024-02-04T00:43:00;10.90;57.10
68766;DHT22;55756;45.582;11.484;2024-02-04T00:45:26;10.90;57.00
68766;DHT22;55756;45.582;11.484;2024-02-04T00:47:52;10.90;57.20
68766;DHT22;55756;45.582;11.484;2024-02-04T00:50:18;10.90;57.30
68766;DHT22;55756;45.582;11.484;2024-02-04T00:52:44;10.90;57.80
68766;DHT22;55756;45.582;11.484;2024-02-04T00:55:10;10.90;57.90
68766;DHT22;55756;45.582;11.484;2024-02-04T00:57:36;10.90;57.80
68766;DHT22;55756;45.582;11.484;2024-02-04T01:00:02;10.80;57.40
68766;DHT22;55756;45.582;11.484;2024-02-04T01:02:29;10.80;57.50
68766;DHT22;55756;45.582;11.484;2024-02-04T01:04:55;10.80;57.30
68766;DHT22;55756;45.582;11.484;2024-02-04T01:07:20;10.80;57.20
68766;DHT22;55756;45.582;11.484;2024-02-04T01:09:46;10.80;57.20
68766;DHT22;55756;45.582;11.484;2024-02-04T01:12:12;10.80;57.30
68766;DHT22;55756;45.582;11.484;2024-02-04T01:14:37;10.80;57.60
68766;DHT22;55756;45.582;11.484;2024-02-04T01:17:03;10.80;57.20
68766;DHT22;55756;45.582;11.484;2024-02-04T01:19:29;10.80;57.80
68766;DHT22;55756;45.582;11.484;2024-02-04T01:21:55;10.80;58.10
68766;DHT22;55756;45.582;11.484;2024-02-04T01:24:20;10.80;58.10
68766;DHT22;55756;45.582;11.484;2024-02-04T01:26:46;10.80;58.20
68766;DHT22;55756;45.582;11.484;2024-02-04T01:29:12;10.80;58.60
68766;DHT22;55756;45.582;11.484;2024-02-04T01:31:37;10.80;59.40
68766;DHT22;55756;45.582;11.484;2024-02-04T01:34:03;10.80;59.40
68766;DHT22;55756;45.582;11.484;2024-02-04T01:36:29;10.80;58.40
68766;DHT22;55756;45.582;11.484;2024-02-04T01:38:55;10.80;58.00
68766;DHT22;55756;45.582;11.484;2024-02-04T01:41:21;10.80;58.20
68766;DHT22;55756;45.582;11.484;2024-02-04T01:43:47;10.80;58.20
68766;DHT22;55756;45.582;11.484;2024-02-04T01:46:13;10.80;58.20
68766;DHT22;55756;45.582;11.484;2024-02-04T01:48:39;10.80;58.70
68766;DHT22;55756;45.582;11.484;2024-02-04T01:51:05;10.80;58.00
68766;DHT22;55756;45.582;11.484;2024-02-04T01:53:32;10.80;57.80
68766;DHT22;55756;45.582;11.484;2024-02-04T01:55:59;10.80;57.80
68766;DHT22;55756;45.582;11.484;2024-02-04T01:58:25;10.80;57.70
68766;DHT22;55756;45.582;11.484;2024-02-04T02:00:51;10.70;58.30
68766;DHT22;55756;45.582;11.484;2024-02-04T02:03:18;10.70;58.70
68766;DHT22;55756;45.582;11.484;2024-02-04T02:05:46;10.70;58.50
68766;DHT22;55756;45.582;11.484;2024-02-04T02:08:12;10.80;58.10
68766;DHT22;55756;45.582;11.484;2024-02-04T02:10:38;10.80;58.30
68766;DHT22;55756;45.582;11.484;2024-02-04T02:13:13;10.80;58.20
68766;DHT22;55756;45.582;11.484;2024-02-04T02:16:06;10.80;58.30
68766;DHT22;55756;45.582;11.484;2024-02-04T02:21:28;10.70;58.30
68766;DHT22;55756;45.582;11.484;2024-02-04T02:26:27;10.70;58.00
68766;DHT22;55756;45.582;11.484;2024-02-04T02:28:54;10.60;57.80
68766;DHT22;55756;45.582;11.484;2024-02-04T02:31:21;10.60;57.80
68766;DHT22;55756;45.582;11.484;2024-02-04T02:33:46;10.60;58.00
68766;DHT22;55756;45.582;11.484;2024-02-04T02:36:17;10.60;57.90
68766;DHT22;55756;45.582;11.484;2024-02-04T02:39:24;10.60;58.20
68766;DHT22;55756;45.582;11.484;2024-02-04T02:41:55;10.60;57.90
68766;DHT22;55756;45.582;11.484;2024-02-04T02:44:24;10.50;57.80
68766;DHT22;55756;45.582;11.484;2024-02-04T02:46:50;10.50;57.70
68766;DHT22;55756;45.582;11.484;2024-02-04T02:49:16;10.50;57.80
68766;DHT22;55756;45.582;11.484;2024-02-04T02:51:42;10.50;57.70
68766;DHT22;55756;45.582;11.484;2024-02-04T02:54:08;10.50;57.70
68766;DHT22;55756;45.582;11.484;2024-02-04T02:56:33;10.50;57.70
68766;DHT22;55756;45.582;11.484;2024-02-04T02:58:59;10.50;58.00
68766;DHT22;55756;45.582;11.484;2024-02-04T03:01:25;10.50;57.70
68766;DHT22;55756;45.582;11.484;2024-02-04T03:03:50;10.40;57.90
68766;DHT22;55756;45.582;11.484;2024-02-04T03:06:16;10.40;57.70
68766;DHT22;55756;45.582;11.484;2024-02-04T03:08:42;10.40;57.60
68766;DHT22;55756;45.582;11.484;2024-02-04T03:11:08;10.40;57.50
68766;DHT22;55756;45.582;11.484;2024-02-04T03:13:33;10.40;57.90
68766;DHT22;55756;45.582;11.484;2024-02-04T03:15:59;10.40;57.80
68766;DHT22;55756;45.582;11.484;2024-02-04T03:18:25;10.40;58.20
68766;DHT22;55756;45.582;11.484;2024-02-04T03:20:51;10.30;58.10
68766;DHT22;55756;45.582;11.484;2024-02-04T03:23:17;10.40;57.40
68766;DHT22;55756;45.582;11.484;2024-02-04T03:25:43;10.30;57.50
68766;DHT22;55756;45.582;11.484;2024-02-04T03:28:08;10.30;57.70
68766;DHT22;55756;45.582;11.484;2024-02-04T03:30:34;10.30;57.50
68766;DHT22;55756;45.582;11.484;2024-02-04T03:33:00;10.30;57.50
68766;DHT22;55756;45.582;11.484;2024-02-04T03:35:26;10.30;57.40
68766;DHT22;55756;45.582;11.484;2024-02-04T03:37:51;10.30;58.00
68766;DHT22;55756;45.582;11.484;2024-02-04T03:40:17;10.30;57.90
68766;DHT22;55756;45.582;11.484;2024-02-04T03:42:45;10.30;57.60
68766;DHT22;55756;45.582;11.484;2024-02-04T03:45:11;10.20;57.00
68766;DHT22;55756;45.582;11.484;2024-02-04T03:47:37;10.20;57.60
68766;DHT22;55756;45.582;11.484;2024-02-04T03:50:03;10.20;57.20
68766;DHT22;55756;45.582;11.484;2024-02-04T03:52:29;10.20;57.20
68766;DHT22;55756;45.582;11.484;2024-02-04T03:54:55;10.20;56.80
68766;DHT22;55756;45.582;11.484;2024-02-04T03:57:21;10.10;56.80
68766;DHT22;55756;45.582;11.484;2024-02-04T03:59:47;10.10;56.80
68766;DHT22;55756;45.582;11.484;2024-02-04T04:02:13;10.10;56.90
68766;DHT22;55756;45.582;11.484;2024-02-04T04:04:41;10.10;56.80
68766;DHT22;55756;45.582;11.484;2024-02-04T04:07:08;10.10;56.70
68766;DHT22;55756;45.582;11.484;2024-02-04T04:09:34;10.10;57.40
68766;DHT22;55756;45.582;11.484;2024-02-04T04:12:00;10.10;57.00
68766;DHT22;55756;45.582;11.484;2024-02-04T04:14:25;10.00;56.60
68766;DHT22;55756;45.582;11.484;2024-02-04T04:16:51;10.00;57.00
68766;DHT22;55756;45.582;11.484;2024-02-04T04:19:17;10.00;56.90
68766;DHT22;55756;45.582;11.484;2024-02-04T04:21:42;10.00;57.20
68766;DHT22;55756;45.582;11.484;2024-02-04T04:24:08;10.00;57.00
68766;DHT22;55756;45.582;11.484;2024-02-04T04:26:34;10.00;57.00
68766;DHT22;55756;45.582;11.484;2024-02-04T04:28:59;10.00;57.10
68766;DHT22;55756;45.582;11.484;2024-02-04T04:31:25;9.90;57.50
68766;DHT22;55756;45.582;11.484;2024-02-04T04:33:51;10.00;57.40
68766;DHT22;55756;45.582;11.484;2024-02-04T04:36:19;9.90;57.50
68766;DHT22;55756;45.582;11.484;2024-02-04T04:38:44;10.00;57.60
68766;DHT22;55756;45.582;11.484;2024-02-04T04:41:10;10.00;57.80
68766;DHT22;55756;45.582;11.484;2024-02-04T04:43:39;10.00;58.00
68766;DHT22;55756;45.582;11.484;2024-02-04T04:46:05;9.90;57.50
68766;DHT22;55756;45.582;11.484;2024-02-04T04:48:30;10.00;57.00
68766;DHT22;55756;45.582;11.484;2024-02-04T04:50:56;9.90;56.50
68766;DHT22;55756;45.582;11.484;2024-02-04T04:53:22;9.90;56.60
68766;DHT22;55756;45.582;11.484;2024-02-04T04:55:47;9.90;56.70
68766;DHT22;55756;45.582;11.484;2024-02-04T04:58:13;9.90;57.10
68766;DHT22;55756;45.582;11.484;2024-02-04T05:00:39;9.90;57.00
68766;DHT22;55756;45.582;11.484;2024-02-04T05:03:05;9.80;57.00
68766;DHT22;55756;45.582;11.484;2024-02-04T05:05:30;9.80;56.80
68766;DHT22;55756;45.582;11.484;2024-02-04T05:07:56;9.80;56.50
68766;DHT22;55756;45.582;11.484;2024-02-04T05:10:22;9.80;56.40
68766;DHT22;55756;45.582;11.484;2024-02-04T05:12:48;9.70;56.00
68766;DHT22;55756;45.582;11.484;2024-02-04T05:15:13;9.70;56.40
68766;DHT22;55756;45.582;11.484;2024-02-04T05:17:39;9.70;56.80
68766;DHT22;55756;45.582;11.484;2024-02-04T05:20:05;9.80;56.70
68766;DHT22;55756;45.582;11.484;2024-02-04T05:22:33;9.70;56.70
68766;DHT22;55756;45.582;11.484;2024-02-04T05:24:58;9.70;56.60
68766;DHT22;55756;45.582;11.484;2024-02-04T05:27:24;9.70;56.80
68766;DHT22;55756;45.582;11.484;2024-02-04T05:29:50;9.70;56.50
68766;DHT22;55756;45.582;11.484;2024-02-04T05:32:16;9.60;56.90
68766;DHT22;55756;45.582;11.484;2024-02-04T05:34:42;9.60;57.20
68766;DHT22;55756;45.582;11.484;2024-02-04T05:37:07;9.70;57.00
68766;DHT22;55756;45.582;11.484;2024-02-04T05:39:33;9.60;57.40
68766;DHT22;55756;45.582;11.484;2024-02-04T05:41:59;9.60;57.30
68766;DHT22;55756;45.582;11.484;2024-02-04T05:44:24;9.60;57.50
68766;DHT22;55756;45.582;11.484;2024-02-04T05:46:50;9.60;57.60
68766;DHT22;55756;45.582;11.484;2024-02-04T05:49:16;9.60;57.20
68766;DHT22;55756;45.582;11.484;2024-02-04T05:51:42;9.60;57.50
68766;DHT22;55756;45.582;11.484;2024-02-04T05:54:08;9.60;57.10
68766;DHT22;55756;45.582;11.484;2024-02-04T05:56:34;9.60;57.30
68766;DHT22;55756;45.582;11.484;2024-02-04T05:59:00;9.60;57.80
68766;DHT22;55756;45.582;11.484;2024-02-04T06:01:25;9.60;57.40
68766;DHT22;55756;45.582;11.484;2024-02-04T06:03:51;9.50;57.60
68766;DHT22;55756;45.582;11.484;2024-02-04T06:06:18;9.50;57.40
68766;DHT22;55756;45.582;11.484;2024-02-04T06:08:46;9.50;57.10
68766;DHT22;55756;45.582;11.484;2024-02-04T06:11:12;9.50;57.30
68766;DHT22;55756;45.582;11.484;2024-02-04T06:13:43;9.60;57.20
68766;DHT22;55756;45.582;11.484;2024-02-04T06:16:10;9.60;56.80
68766;DHT22;55756;45.582;11.484;2024-02-04T06:18:38;9.60;56.30
68766;DHT22;55756;45.582;11.484;2024-02-04T06:21:04;9.60;56.20
68766;DHT22;55756;45.582;11.484;2024-02-04T06:23:30;9.60;56.40
68766;DHT22;55756;45.582;11.484;2024-02-04T06:25:56;9.60;56.30
68766;DHT22;55756;45.582;11.484;2024-02-04T06:28:22;9.60;56.30
68766;DHT22;55756;45.582;11.484;2024-02-04T06:30:49;9.50;56.20
68766;DHT22;55756;45.582;11.484;2024-02-04T06:33:15;9.50;56.10
68766;DHT22;55756;45.582;11.484;2024-02-04T06:35:41;9.50;56.20
68766;DHT22;55756;45.582;11.484;2024-02-04T06:38:06;9.50;56.60
68766;DHT22;55756;45.582;11.484;2024-02-04T06:40:32;9.50;56.90
68766;DHT22;55756;45.582;11.484;2024-02-04T06:42:58;9.50;56.70
68766;DHT22;55756;45.582;11.484;2024-02-04T06:45:24;9.50;56.20
68766;DHT22;55756;45.582;11.484;2024-02-04T06:47:49;9.50;56.90
68766;DHT22;55756;45.582;11.484;2024-02-04T06:50:15;9.50;57.10
68766;DHT22;55756;45.582;11.484;2024-02-04T06:52:45;9.50;57.10
68766;DHT22;55756;45.582;11.484;2024-02-04T06:55:11;9.40;56.90
68766;DHT22;55756;45.582;11.484;2024-02-04T06:57:37;9.50;57.10
68766;DHT22;55756;45.582;11.484;2024-02-04T07:00:03;9.40;57.40
68766;DHT22;55756;45.582;11.484;2024-02-04T07:02:34;9.50;57.70
68766;DHT22;55756;45.582;11.484;2024-02-04T07:05:00;9.50;57.70
68766;DHT22;55756;45.582;11.484;2024-02-04T07:07:26;9.40;57.60
68766;DHT22;55756;45.582;11.484;2024-02-04T07:09:51;9.50;57.80
68766;DHT22;55756;45.582;11.484;2024-02-04T07:12:17;9.50;57.70
68766;DHT22;55756;45.582;11.484;2024-02-04T07:14:43;9.50;57.70
68766;DHT22;55756;45.582;11.484;2024-02-04T07:17:08;9.50;57.70
68766;DHT22;55756;45.582;11.484;2024-02-04T07:19:34;9.50;57.20
68766;DHT22;55756;45.582;11.484;2024-02-04T07:22:01;9.50;57.50
68766;DHT22;55756;45.582;11.484;2024-02-04T07:24:27;9.50;57.50
68766;DHT22;55756;45.582;11.484;2024-02-04T07:26:52;9.50;57.70
68766;DHT22;55756;45.582;11.484;2024-02-04T07:29:19;9.50;58.30
68766;DHT22;55756;45.582;11.484;2024-02-04T07:31:44;9.50;58.60
68766;DHT22;55756;45.582;11.484;2024-02-04T07:34:10;9.50;58.60
68766;DHT22;55756;45.582;11.484;2024-02-04T07:36:36;9.50;58.80
68766;DHT22;55756;45.582;11.484;2024-02-04T07:39:02;9.50;58.80
68766;DHT22;55756;45.582;11.484;2024-02-04T07:41:30;9.60;59.10
68766;DHT22;55756;45.582;11.484;2024-02-04T07:43:57;9.60;58.80
68766;DHT22;55756;45.582;11.484;2024-02-04T07:46:23;9.60;58.70
68766;DHT22;55756;45.582;11.484;2024-02-04T07:48:49;9.60;58.80
68766;DHT22;55756;45.582;11.484;2024-02-04T07:51:14;9.60;59.10
68766;DHT22;55756;45.582;11.484;2024-02-04T07:53:40;9.60;58.90
68766;DHT22;55756;45.582;11.484;2024-02-04T07:56:06;9.60;59.30
68766;DHT22;55756;45.582;11.484;2024-02-04T07:58:33;9.70;59.60
68766;DHT22;55756;45.582;11.484;2024-02-04T08:00:58;9.70;59.80
68766;DHT22;55756;45.582;11.484;2024-02-04T08:03:24;9.70;59.70
68766;DHT22;55756;45.582;11.484;2024-02-04T08:05:50;9.70;59.50
68766;DHT22;55756;45.582;11.484;2024-02-04T08:08:16;9.70;59.50
68766;DHT22;55756;45.582;11.484;2024-02-04T08:10:42;9.70;59.40
68766;DHT22;55756;45.582;11.484;2024-02-04T08:13:08;9.70;59.40
68766;DHT22;55756;45.582;11.484;2024-02-04T08:15:34;9.70;59.90
68766;DHT22;55756;45.582;11.484;2024-02-04T08:18:00;9.80;59.80
68766;DHT22;55756;45.582;11.484;2024-02-04T08:20:25;9.80;60.30
68766;DHT22;55756;45.582;11.484;2024-02-04T08:22:52;9.80;59.80
68766;DHT22;55756;45.582;11.484;2024-02-04T08:25:17;9.80;60.40
68766;DHT22;55756;45.582;11.484;2024-02-04T08:27:43;9.80;60.40
68766;DHT22;55756;45.582;11.484;2024-02-04T08:30:09;9.90;60.80
68766;DHT22;55756;45.582;11.484;2024-02-04T08:32:37;9.90;61.30
68766;DHT22;55756;45.582;11.484;2024-02-04T08:35:04;10.00;61.20
68766;DHT22;55756;45.582;11.484;2024-02-04T08:37:32;10.00;62.00
68766;DHT22;55756;45.582;11.484;2024-02-04T08:39:57;10.00;62.30
68766;DHT22;55756;45.582;11.484;2024-02-04T08:42:23;10.00;62.70
68766;DHT22;55756;45.582;11.484;2024-02-04T08:44:49;10.00;63.00
68766;DHT22;55756;45.582;11.484;2024-02-04T08:47:15;10.10;62.50
68766;DHT22;55756;45.582;11.484;2024-02-04T08:49:42;10.20;62.70
68766;DHT22;55756;45.582;11.484;2024-02-04T08:52:08;10.20;62.60
68766;DHT22;55756;45.582;11.484;2024-02-04T08:54:34;10.30;62.60
68766;DHT22;55756;45.582;11.484;2024-02-04T08:56:59;10.30;62.50
68766;DHT22;55756;45.582;11.484;2024-02-04T08:59:25;10.30;62.70
68766;DHT22;55756;45.582;11.484;2024-02-04T09:01:51;10.40;62.50
68766;DHT22;55756;45.582;11.484;2024-02-04T09:04:17;10.40;62.90
68766;DHT22;55756;45.582;11.484;2024-02-04T09:06:42;10.40;63.10
68766;DHT22;55756;45.582;11.484;2024-02-04T09:09:08;10.40;62.80
68766;DHT22;55756;45.582;11.484;2024-02-04T09:11:35;10.50;63.30
68766;DHT22;55756;45.582;11.484;2024-02-04T09:14:00;10.50;63.10
68766;DHT22;55756;45.582;11.484;2024-02-04T09:16:26;10.50;62.80
68766;DHT22;55756;45.582;11.484;2024-02-04T09:18:52;10.50;63.70
68766;DHT22;55756;45.582;11.484;2024-02-04T09:21:18;10.60;62.70
68766;DHT22;55756;45.582;11.484;2024-02-04T09:23:43;10.60;62.60
68766;DHT22;55756;45.582;11.484;2024-02-04T09:26:09;10.70;62.40
68766;DHT22;55756;45.582;11.484;2024-02-04T09:28:35;10.70;62.20
68766;DHT22;55756;45.582;11.484;2024-02-04T09:31:00;10.70;62.60
68766;DHT22;55756;45.582;11.484;2024-02-04T09:33:26;10.80;62.90
68766;DHT22;55756;45.582;11.484;2024-02-04T09:35:52;10.80;62.90
68766;DHT22;55756;45.582;11.484;2024-02-04T09:38:18;10.90;63.10
68766;DHT22;55756;45.582;11.484;2024-02-04T09:40:44;10.90;63.20
68766;DHT22;55756;45.582;11.484;2024-02-04T09:43:10;11.00;62.70
68766;DHT22;55756;45.582;11.484;2024-02-04T09:45:37;11.00;62.60
68766;DHT22;55756;45.582;11.484;2024-02-04T09:48:04;11.10;62.40
68766;DHT22;55756;45.582;11.484;2024-02-04T09:50:29;11.10;63.40
68766;DHT22;55756;45.582;11.484;2024-02-04T09:52:58;11.10;62.70
68766;DHT22;55756;45.582;11.484;2024-02-04T09:55:29;11.20;63.70
68766;DHT22;55756;45.582;11.484;2024-02-04T09:57:55;11.20;63.70
68766;DHT22;55756;45.582;11.484;2024-02-04T10:00:21;11.20;62.70
68766;DHT22;55756;45.582;11.484;2024-02-04T10:02:50;11.30;62.30
68766;DHT22;55756;45.582;11.484;2024-02-04T10:05:16;11.40;62.90
68766;DHT22;55756;45.582;11.484;2024-02-04T10:07:42;11.40;62.90
68766;DHT22;55756;45.582;11.484;2024-02-04T10:10:08;11.50;62.40
68766;DHT22;55756;45.582;11.484;2024-02-04T10:12:35;11.60;62.30
68766;DHT22;55756;45.582;11.484;2024-02-04T10:15:01;11.60;62.00
68766;DHT22;55756;45.582;11.484;2024-02-04T10:17:30;11.60;62.70
68766;DHT22;55756;45.582;11.484;2024-02-04T10:19:57;11.70;62.20
68766;DHT22;55756;45.582;11.484;2024-02-04T10:22:22;11.70;61.90
68766;DHT22;55756;45.582;11.484;2024-02-04T10:24:50;11.80;61.90
68766;DHT22;55756;45.582;11.484;2024-02-04T10:27:17;11.80;62.00
68766;DHT22;55756;45.582;11.484;2024-02-04T10:29:44;11.90;62.00
68766;DHT22;55756;45.582;11.484;2024-02-04T10:32:09;12.00;61.80
68766;DHT22;55756;45.582;11.484;2024-02-04T10:34:39;12.00;61.60
68766;DHT22;55756;45.582;11.484;2024-02-04T10:37:04;12.10;61.50
68766;DHT22;55756;45.582;11.484;2024-02-04T10:39:30;12.10;61.80
68766;DHT22;55756;45.582;11.484;2024-02-04T10:42:00;12.10;61.40
68766;DHT22;55756;45.582;11.484;2024-02-04T10:44:28;12.20;61.00
68766;DHT22;55756;45.582;11.484;2024-02-04T10:46:58;12.20;61.00
68766;DHT22;55756;45.582;11.484;2024-02-04T10:49:26;12.20;61.30
68766;DHT22;55756;45.582;11.484;2024-02-04T10:51:53;12.30;61.40
68766;DHT22;55756;45.582;11.484;2024-02-04T10:54:22;12.30;61.40
68766;DHT22;55756;45.582;11.484;2024-02-04T10:56:56;12.30;61.20
68766;DHT22;55756;45.582;11.484;2024-02-04T10:59:25;12.30;61.10
68766;DHT22;55756;45.582;11.484;2024-02-04T11:01:55;12.40;61.90
68766;DHT22;55756;45.582;11.484;2024-02-04T11:04:22;12.30;62.30
68766;DHT22;55756;45.582;11.484;2024-02-04T11:06:49;12.40;61.70
68766;DHT22;55756;45.582;11.484;2024-02-04T11:09:16;12.40;62.10
68766;DHT22;55756;45.582;11.484;2024-02-04T11:11:43;12.40;62.00
68766;DHT22;55756;45.582;11.484;2024-02-04T11:14:13;12.40;61.70
68766;DHT22;55756;45.582;11.484;2024-02-04T11:16:57;12.50;62.00
68766;DHT22;55756;45.582;11.484;2024-02-04T11:19:59;12.40;62.20
68766;DHT22;55756;45.582;11.484;2024-02-04T11:25:42;12.40;61.80
68766;DHT22;55756;45.582;11.484;2024-02-04T11:28:10;12.40;61.80
68766;DHT22;55756;45.582;11.484;2024-02-04T11:30:36;12.40;62.20
68766;DHT22;55756;45.582;11.484;2024-02-04T11:33:06;12.40;62.00
68766;DHT22;55756;45.582;11.484;2024-02-04T11:35:36;12.40;62.10
68766;DHT22;55756;45.582;11.484;2024-02-04T11:38:05;12.50;62.70
68766;DHT22;55756;45.582;11.484;2024-02-04T11:40:34;12.50;62.50
68766;DHT22;55756;45.582;11.484;2024-02-04T11:43:12;12.50;63.00
68766;DHT22;55756;45.582;11.484;2024-02-04T11:45:40;12.50;62.80
68766;DHT22;55756;45.582;11.484;2024-02-04T11:48:10;12.60;63.00
68766;DHT22;55756;45.582;11.484;2024-02-04T11:50:37;12.60;62.70
68766;DHT22;55756;45.582;11.484;2024-02-04T11:53:10;12.60;62.80
68766;DHT22;55756;45.582;11.484;2024-02-04T11:55:39;12.70;62.60
68766;DHT22;55756;45.582;11.484;2024-02-04T11:58:05;12.70;63.00
68766;DHT22;55756;45.582;11.484;2024-02-04T12:00:35;12.70;62.90
68766;DHT22;55756;45.582;11.484;2024-02-04T12:03:02;12.70;63.20
68766;DHT22;55756;45.582;11.484;2024-02-04T12:05:31;12.70;62.70
68766;DHT22;55756;45.582;11.484;2024-02-04T12:08:03;12.70;62.30
68766;DHT22;55756;45.582;11.484;2024-02-04T12:10:30;12.70;62.10
68766;DHT22;55756;45.582;11.484;2024-02-04T12:12:59;12.70;61.90
68766;DHT22;55756;45.582;11.484;2024-02-04T12:15:25;12.80;61.80
68766;DHT22;55756;45.582;11.484;2024-02-04T12:17:51;12.80;62.20
68766;DHT22;55756;45.582;11.484;2024-02-04T12:20:17;12.80;62.20
68766;DHT22;55756;45.582;11.484;2024-02-04T12:22:42;12.80;62.20
68766;DHT22;55756;45.582;11.484;2024-02-04T12:25:08;12.80;62.30
68766;DHT22;55756;45.582;11.484;2024-02-04T12:27:35;12.90;62.20
68766;DHT22;55756;45.582;11.484;2024-02-04T12:30:01;12.90;62.10
68766;DHT22;55756;45.582;11.484;2024-02-04T12:32:27;13.00;61.70
68766;DHT22;55756;45.582;11.484;2024-02-04T12:34:53;13.00;61.30
68766;DHT22;55756;45.582;11.484;2024-02-04T12:37:22;13.10;61.10
68766;DHT22;55756;45.582;11.484;2024-02-04T12:39:47;13.10;60.70
68766;DHT22;55756;45.582;11.484;2024-02-04T12:42:16;13.10;60.50
68766;DHT22;55756;45.582;11.484;2024-02-04T12:44:48;13.20;60.30
68766;DHT22;55756;45.582;11.484;2024-02-04T12:47:14;13.20;60.50
68766;DHT22;55756;45.582;11.484;2024-02-04T12:49:44;13.20;61.20
68766;DHT22;55756;45.582;11.484;2024-02-04T12:52:09;13.30;61.10
68766;DHT22;55756;45.582;11.484;2024-02-04T12:54:44;13.30;61.10
68766;DHT22;55756;45.582;11.484;2024-02-04T12:57:10;13.40;61.10
68766;DHT22;55756;45.582;11.484;2024-02-04T12:59:38;13.30;60.80
68766;DHT22;55756;45.582;11.484;2024-02-04T13:02:08;13.40;60.80
68766;DHT22;55756;45.582;11.484;2024-02-04T13:04:39;13.40;60.40
68766;DHT22;55756;45.582;11.484;2024-02-04T13:07:13;13.40;60.40
68766;DHT22;55756;45.582;11.484;2024-02-04T13:09:43;13.40;60.30
68766;DHT22;55756;45.582;11.484;2024-02-04T13:12:10;13.50;60.60
68766;DHT22;55756;45.582;11.484;2024-02-04T13:14:39;13.50;60.80
68766;DHT22;55756;45.582;11.484;2024-02-04T13:17:05;13.40;60.80
68766;DHT22;55756;45.582;11.484;2024-02-04T13:19:34;13.50;60.80
68766;DHT22;55756;45.582;11.484;2024-02-04T13:22:02;13.40;60.40
68766;DHT22;55756;45.582;11.484;2024-02-04T13:24:29;13.50;60.20
68766;DHT22;55756;45.582;11.484;2024-02-04T13:26:55;13.50;60.30
68766;DHT22;55756;45.582;11.484;2024-02-04T13:29:21;13.50;60.00
68766;DHT22;55756;45.582;11.484;2024-02-04T13:31:46;13.60;60.40
68766;DHT22;55756;45.582;11.484;2024-02-04T13:34:12;13.60;60.10
68766;DHT22;55756;45.582;11.484;2024-02-04T13:36:38;13.70;60.10
68766;DHT22;55756;45.582;11.484;2024-02-04T13:39:03;13.70;60.20
68766;DHT22;55756;45.582;11.484;2024-02-04T13:41:31;13.60;60.20
68766;DHT22;55756;45.582;11.484;2024-02-04T13:43:57;13.70;59.70
68766;DHT22;55756;45.582;11.484;2024-02-04T13:46:23;13.70;59.90
68766;DHT22;55756;45.582;11.484;2024-02-04T13:48:49;13.70;59.80
68766;DHT22;55756;45.582;11.484;2024-02-04T13:51:15;13.70;59.70
68766;DHT22;55756;45.582;11.484;2024-02-04T13:53:41;13.70;60.30
68766;DHT22;55756;45.582;11.484;2024-02-04T13:56:06;13.80;59.60
68766;DHT22;55756;45.582;11.484;2024-02-04T13:58:32;13.80;60.40
68766;DHT22;55756;45.582;11.484;2024-02-04T14:00:58;13.80;61.10
68766;DHT22;55756;45.582;11.484;2024-02-04T14:03:25;13.80;60.50
68766;DHT22;55756;45.582;11.484;2024-02-04T14:05:51;13.80;60.70
68766;DHT22;55756;45.582;11.484;2024-02-04T14:08:17;13.80;60.90
68766;DHT22;55756;45.582;11.484;2024-02-04T14:10:43;13.70;60.50
68766;DHT22;55756;45.582;11.484;2024-02-04T14:13:08;13.70;60.90
68766;DHT22;55756;45.582;11.484;2024-02-04T14:15:36;13.80;63.10
68766;DHT22;55756;45.582;11.484;2024-02-04T14:18:02;13.80;63.90
68766;DHT22;55756;45.582;11.484;2024-02-04T14:20:28;13.80;64.00
68766;DHT22;55756;45.582;11.484;2024-02-04T14:22:53;13.80;63.70
68766;DHT22;55756;45.582;11.484;2024-02-04T14:25:19;13.90;63.90
68766;DHT22;55756;45.582;11.484;2024-02-04T14:27:45;13.90;63.70
68766;DHT22;55756;45.582;11.484;2024-02-04T14:30:11;13.90;63.80
68766;DHT22;55756;45.582;11.484;2024-02-04T14:32:37;13.90;63.80
68766;DHT22;55756;45.582;11.484;2024-02-04T14:35:03;13.90;63.30
68766;DHT22;55756;45.582;11.484;2024-02-04T14:37:30;13.90;63.00
68766;DHT22;55756;45.582;11.484;2024-02-04T14:39:58;13.90;63.60
68766;DHT22;55756;45.582;11.484;2024-02-04T14:42:25;14.00;63.10
68766;DHT22;55756;45.582;11.484;2024-02-04T14:44:52;14.00;63.30
68766;DHT22;55756;45.582;11.484;2024-02-04T14:47:18;14.00;62.60
68766;DHT22;55756;45.582;11.484;2024-02-04T14:49:44;13.90;62.60
68766;DHT22;55756;45.582;11.484;2024-02-04T14:52:10;13.90;62.80
68766;DHT22;55756;45.582;11.484;2024-02-04T14:54:36;14.00;62.70
68766;DHT22;55756;45.582;11.484;2024-02-04T14:57:05;13.90;62.60
68766;DHT22;55756;45.582;11.484;2024-02-04T14:59:30;14.00;62.40
68766;DHT22;55756;45.582;11.484;2024-02-04T15:01:58;14.00;62.50
68766;DHT22;55756;45.582;11.484;2024-02-04T15:04:24;14.00;62.60
68766;DHT22;55756;45.582;11.484;2024-02-04T15:06:50;14.00;62.30
68766;DHT22;55756;45.582;11.484;2024-02-04T15:09:16;14.00;62.70
68766;DHT22;55756;45.582;11.484;2024-02-04T15:11:42;13.90;62.60
68766;DHT22;55756;45.582;11.484;2024-02-04T15:14:08;13.90;62.40
68766;DHT22;55756;45.582;11.484;2024-02-04T15:16:34;13.90;61.60
68766;DHT22;55756;45.582;11.484;2024-02-04T15:19:04;13.90;62.10
68766;DHT22;55756;45.582;11.484;2024-02-04T15:21:31;13.90;61.90
68766;DHT22;55756;45.582;11.484;2024-02-04T15:23:57;13.90;61.90
68766;DHT22;55756;45.582;11.484;2024-02-04T15:26:29;13.90;62.50